createdAt,value
2023-03-05T00:01:45.462Z,1.10
2023-03-05T00:04:16.828Z,0.75
2023-03-05T00:06:47.369Z,0.98
2023-03-05T00:09:17.679Z,0.98
2023-03-05T00:11:48.334Z,0.88
2023-03-05T00:14:21.560Z,1.30
2023-03-05T00:16:51.892Z,0.95
2023-03-05T00:19:22.402Z,2.72
2023-03-05T00:21:52.960Z,0.88
2023-03-05T00:24:23.283Z,1.15
2023-03-05T00:26:53.788Z,1.08
2023-03-05T00:29:29.590Z,1.35
2023-03-05T00:32:01.945Z,0.82
2023-03-05T00:34:32.219Z,1.27
2023-03-05T00:37:02.862Z,1.02
2023-03-05T00:39:33.382Z,0.90
2023-03-05T00:42:03.728Z,1.00
2023-03-05T00:44:36.732Z,0.90
2023-03-05T00:47:08.258Z,1.80
2023-03-05T00:49:38.472Z,1.00
2023-03-05T00:52:08.936Z,1.05
2023-03-05T00:54:39.248Z,2.55
2023-03-05T00:57:09.755Z,1.15
2023-03-05T00:59:42.683Z,1.00
2023-03-05T01:02:13.339Z,1.10
2023-03-05T01:04:47.193Z,1.00
2023-03-05T01:07:17.519Z,0.90
2023-03-05T01:09:47.768Z,1.35
2023-03-05T01:12:18.249Z,0.90
2023-03-05T01:14:51.207Z,0.70
2023-03-05T01:17:23.618Z,1.08
2023-03-05T01:19:53.848Z,0.73
2023-03-05T01:22:24.245Z,1.30
2023-03-05T01:24:54.696Z,1.10
2023-03-05T01:27:25.015Z,2.60
2023-03-05T01:29:58.954Z,0.95
2023-03-05T01:32:29.434Z,0.80
2023-03-05T01:34:59.723Z,0.90
2023-03-05T01:37:30.219Z,1.20
2023-03-05T01:40:00.702Z,1.00
2023-03-05T01:42:33.069Z,0.80
2023-03-05T01:45:08.088Z,0.73
2023-03-05T01:47:38.443Z,0.68
2023-03-05T01:50:09.400Z,0.90
2023-03-05T01:52:41.604Z,3.17
2023-03-05T01:55:14.446Z,1.00
2023-03-05T01:57:47.254Z,0.80
2023-03-05T02:00:21.390Z,0.68
2023-03-05T02:02:53.030Z,0.75
2023-03-05T02:05:27.365Z,0.80
2023-03-05T02:07:58.422Z,0.90
2023-03-05T02:10:30.584Z,0.85
2023-03-05T02:13:02.800Z,0.80
2023-03-05T02:15:36.380Z,1.02
2023-03-05T02:18:06.862Z,0.93
2023-03-05T02:20:47.656Z,0.90
2023-03-05T02:23:22.800Z,1.08
2023-03-05T02:25:53.531Z,0.90
2023-03-05T02:28:26.961Z,1.20
2023-03-05T02:30:57.426Z,1.02
2023-03-05T02:33:28.183Z,0.90
2023-03-05T02:35:58.549Z,0.95
2023-03-05T02:38:31.518Z,2.10
2023-03-05T02:41:01.775Z,1.10
2023-03-05T02:43:35.324Z,1.00
2023-03-05T02:46:05.785Z,1.08
2023-03-05T02:48:36.536Z,0.98
2023-03-05T02:51:07.522Z,1.17
2023-03-05T02:53:40.530Z,1.02
2023-03-05T02:56:10.824Z,1.25
2023-03-05T02:58:44.519Z,1.02
2023-03-05T03:01:15.036Z,1.20
2023-03-05T03:03:45.493Z,1.30
2023-03-05T03:06:15.894Z,1.92
2023-03-05T03:08:48.870Z,4.50
2023-03-05T03:11:19.265Z,1.15
2023-03-05T03:13:49.783Z,1.08
2023-03-05T03:16:22.598Z,1.10
2023-03-05T03:18:53.020Z,1.27
2023-03-05T03:21:24.319Z,2.90
2023-03-05T03:23:57.240Z,2.80
2023-03-05T03:26:27.656Z,1.15
2023-03-05T03:28:58.002Z,1.25
2023-03-05T03:31:28.281Z,0.80
2023-03-05T03:33:58.595Z,1.42
2023-03-05T03:36:28.915Z,1.08
2023-03-05T03:39:01.822Z,1.40
2023-03-05T03:41:32.081Z,1.15
2023-03-05T03:44:03.611Z,1.13
2023-03-05T03:46:34.123Z,3.20
2023-03-05T03:49:04.453Z,1.45
2023-03-05T03:51:34.943Z,1.90
2023-03-05T03:54:08.124Z,1.15
2023-03-05T03:56:38.482Z,2.75
2023-03-05T03:59:08.734Z,2.53
2023-03-05T04:01:38.976Z,1.90
2023-03-05T04:04:10.912Z,1.55
2023-03-05T04:06:41.190Z,1.30
2023-03-05T04:09:14.205Z,1.15
2023-03-05T04:11:44.427Z,1.10
2023-03-05T04:14:15.059Z,1.85
2023-03-05T04:16:45.346Z,1.42
2023-03-05T04:19:15.623Z,1.27
2023-03-05T04:21:45.848Z,1.40
2023-03-05T04:24:18.730Z,1.63
2023-03-05T04:26:49.386Z,1.23
2023-03-05T04:29:19.627Z,1.42
2023-03-05T04:31:49.840Z,2.03
2023-03-05T04:34:20.127Z,1.60
2023-03-05T04:36:50.342Z,1.40
2023-03-05T04:39:23.618Z,1.80
2023-03-05T04:41:53.888Z,1.55
2023-03-05T04:44:26.460Z,1.40
2023-03-05T04:46:56.656Z,1.55
2023-03-05T04:49:26.906Z,1.38
2023-03-05T04:51:57.648Z,1.17
2023-03-05T04:54:30.972Z,1.25
2023-03-05T04:57:01.192Z,1.40
2023-03-05T04:59:31.490Z,2.20
2023-03-05T05:02:01.967Z,1.10
2023-03-05T05:04:32.709Z,2.65
2023-03-05T05:07:03.046Z,1.58
2023-03-05T05:09:35.935Z,1.58
2023-03-05T05:12:06.260Z,1.27
2023-03-05T05:14:39.360Z,1.65
2023-03-05T05:17:09.848Z,1.60
2023-03-05T05:19:40.178Z,1.42
2023-03-05T05:22:10.499Z,3.53
2023-03-05T05:24:43.394Z,2.08
2023-03-05T05:27:13.662Z,2.20
2023-03-05T05:29:45.424Z,2.70
2023-03-05T05:32:15.698Z,2.78
2023-03-05T05:34:46.091Z,2.65
2023-03-05T05:37:16.387Z,2.40
2023-03-05T05:39:50.526Z,1.77
2023-03-05T05:42:20.908Z,3.28
2023-03-05T05:44:51.238Z,2.10
2023-03-05T05:47:21.847Z,1.27
2023-03-05T05:49:52.203Z,1.80
2023-03-05T05:52:22.443Z,3.45
2023-03-05T05:54:55.538Z,1.20
2023-03-05T05:57:25.782Z,1.23
2023-03-05T05:59:56.105Z,3.38
2023-03-05T06:02:27.800Z,1.52
2023-03-05T06:04:58.386Z,1.10
2023-03-05T06:07:28.677Z,0.70
2023-03-05T06:10:01.973Z,1.17
2023-03-05T06:12:32.284Z,0.93
2023-03-05T06:15:02.550Z,1.25
2023-03-05T06:17:32.732Z,1.27
2023-03-05T06:20:04.509Z,0.85
2023-03-05T06:22:34.740Z,1.23
2023-03-05T06:25:07.830Z,1.33
2023-03-05T06:27:38.231Z,2.05
2023-03-05T06:30:09.244Z,1.42
2023-03-05T06:32:39.503Z,2.20
2023-03-05T06:35:10.117Z,2.08
2023-03-05T06:37:40.368Z,2.20
2023-03-05T06:40:14.045Z,1.63
2023-03-05T06:42:44.266Z,1.73
2023-03-05T06:45:14.760Z,1.55
2023-03-05T06:47:44.980Z,1.70
2023-03-05T06:50:15.799Z,1.83
2023-03-05T06:52:46.061Z,1.92
2023-03-05T06:55:19.091Z,1.67
2023-03-05T06:57:49.286Z,1.75
2023-03-05T07:00:19.906Z,1.80
2023-03-05T07:02:50.216Z,1.67
2023-03-05T07:05:20.814Z,2.15
2023-03-05T07:07:51.019Z,1.75
2023-03-05T07:10:24.224Z,2.63
2023-03-05T07:12:54.460Z,3.25
2023-03-05T07:15:24.847Z,3.58
2023-03-05T07:17:56.646Z,1.70
2023-03-05T07:20:27.082Z,3.85
2023-03-05T07:22:57.372Z,1.80
2023-03-05T07:25:30.320Z,2.50
2023-03-05T07:28:00.575Z,2.40
2023-03-05T07:30:30.917Z,2.17
2023-03-05T07:33:02.188Z,2.00
2023-03-05T07:35:32.460Z,2.10
2023-03-05T07:38:02.731Z,3.85
2023-03-05T07:40:35.722Z,2.10
2023-03-05T07:43:05.955Z,2.35
2023-03-05T07:45:36.235Z,2.20
2023-03-05T07:48:06.457Z,2.90
2023-03-05T07:50:36.840Z,2.17
2023-03-05T07:53:07.136Z,2.05
2023-03-05T07:55:45.271Z,2.92
2023-03-05T07:58:16.339Z,2.08
2023-03-05T08:00:46.596Z,1.88
2023-03-05T08:03:16.871Z,1.77
2023-03-05T08:05:47.241Z,1.70
2023-03-05T08:08:17.473Z,1.55
2023-03-05T08:10:50.332Z,2.60
2023-03-05T08:13:20.568Z,0.65
2023-03-05T08:15:50.845Z,0.90
2023-03-05T08:18:22.298Z,0.60
2023-03-05T08:20:52.592Z,0.73
2023-03-05T08:23:22.810Z,0.65
2023-03-05T08:25:55.924Z,0.70
2023-03-05T08:28:29.214Z,0.65
2023-03-05T08:30:59.659Z,0.60
2023-03-05T08:33:31.613Z,0.65
2023-03-05T08:36:02.530Z,0.60
2023-03-05T08:38:32.819Z,0.80
2023-03-05T08:41:06.007Z,0.63
2023-03-05T08:43:36.306Z,0.63
2023-03-05T08:46:07.272Z,0.32
2023-03-05T08:48:37.800Z,0.57
2023-03-05T08:51:08.937Z,0.75
2023-03-05T08:53:39.400Z,0.60
2023-03-05T08:56:12.543Z,0.60
2023-03-05T08:58:43.154Z,0.43
2023-03-05T09:01:13.622Z,0.82
2023-03-05T09:03:43.993Z,0.55
2023-03-05T09:06:14.819Z,0.85
2023-03-05T09:08:45.377Z,0.70
2023-03-05T09:11:18.437Z,0.63
2023-03-05T09:13:48.796Z,0.80
2023-03-05T09:16:20.203Z,0.50
2023-03-05T09:18:50.573Z,0.68
2023-03-05T09:21:21.479Z,0.40
2023-03-05T09:23:51.719Z,0.55
2023-03-05T09:26:24.603Z,0.40
2023-03-05T09:28:54.813Z,0.70
2023-03-05T09:31:25.323Z,0.93
2023-03-05T09:33:55.595Z,0.60
2023-03-05T09:36:26.992Z,0.98
2023-03-05T09:38:57.682Z,0.85
2023-03-05T09:41:37.105Z,0.47
2023-03-05T09:44:11.530Z,0.70
2023-03-05T09:46:45.163Z,1.00
2023-03-05T09:49:19.623Z,0.70
2023-03-05T09:51:50.738Z,0.57
2023-03-05T09:54:22.530Z,0.50
2023-03-05T09:56:59.456Z,0.63
2023-03-05T09:59:32.815Z,0.73
2023-03-05T10:02:05.075Z,0.80
2023-03-05T10:04:42.377Z,0.63
2023-03-05T10:07:16.086Z,0.68
2023-03-05T10:09:48.759Z,0.60
2023-03-05T10:12:28.020Z,0.45
2023-03-05T10:14:58.564Z,0.60
2023-03-05T10:17:55.881Z,0.52
2023-03-05T10:20:33.190Z,0.93
2023-03-05T10:23:08.871Z,0.52
2023-03-05T10:25:49.830Z,0.70
2023-03-05T10:28:25.237Z,0.63
2023-03-05T10:30:59.536Z,0.70
2023-03-05T10:33:35.485Z,1.00
2023-03-05T10:36:19.955Z,2.63
2023-03-05T10:38:57.037Z,0.65
2023-03-05T10:41:31.113Z,0.40
2023-03-05T10:44:08.627Z,0.30
2023-03-05T10:46:39.638Z,0.73
2023-03-05T10:49:16.689Z,0.32
2023-03-05T10:51:51.942Z,0.75
2023-03-05T10:54:25.796Z,0.35
2023-03-05T10:57:06.149Z,1.63
2023-03-05T10:59:39.042Z,0.22
2023-03-05T11:02:10.450Z,0.45
2023-03-05T11:04:41.919Z,0.30
2023-03-05T11:07:32.574Z,0.40
2023-03-05T11:10:08.310Z,0.30
2023-03-05T11:12:39.346Z,0.40
2023-03-05T11:15:26.666Z,0.63
2023-03-05T11:18:11.141Z,1.83
2023-03-05T11:20:41.391Z,0.50
2023-03-05T11:23:15.803Z,0.68
2023-03-05T11:25:57.686Z,0.40
2023-03-05T11:28:33.202Z,0.63
2023-03-05T11:31:10.251Z,0.40
2023-03-05T11:33:41.083Z,0.60
2023-03-05T11:36:29.158Z,0.95
2023-03-05T11:39:02.265Z,0.80
2023-03-05T11:41:34.849Z,0.93
2023-03-05T11:44:06.746Z,0.70
2023-03-05T11:46:42.435Z,0.90
2023-03-05T11:49:15.511Z,0.80
2023-03-05T11:51:48.510Z,0.70
2023-03-05T11:54:23.195Z,1.15
2023-03-05T11:56:55.615Z,0.90
2023-03-05T11:59:27.826Z,0.43
2023-03-05T12:02:01.243Z,0.40
2023-03-05T12:04:31.482Z,0.40
2023-03-05T12:07:03.902Z,0.40
2023-03-05T12:09:40.943Z,0.38
2023-03-05T12:12:16.495Z,0.50
2023-03-05T12:14:49.243Z,0.63
2023-03-05T12:17:26.014Z,0.47
2023-03-05T12:20:00.880Z,0.50
2023-03-05T12:22:36.717Z,0.45
2023-03-05T12:25:22.076Z,0.40
2023-03-05T12:27:52.378Z,0.55
2023-03-05T12:30:37.574Z,0.32
2023-03-05T12:33:30.542Z,0.50
2023-03-05T12:36:15.602Z,0.30
2023-03-05T12:38:51.985Z,0.38
2023-03-05T12:41:46.163Z,0.25
2023-03-05T12:44:21.678Z,0.43
2023-03-05T12:47:06.907Z,0.30
2023-03-05T12:49:41.806Z,0.30
2023-03-05T12:52:19.556Z,0.43
2023-03-05T12:54:59.479Z,0.68
2023-03-05T12:57:31.433Z,0.40
2023-03-05T13:00:05.259Z,0.63
2023-03-05T13:02:37.974Z,0.43
2023-03-05T13:05:11.822Z,0.22
2023-03-05T13:07:42.362Z,0.30
2023-03-05T13:10:27.836Z,0.40
2023-03-05T13:13:02.842Z,0.40
2023-03-05T13:15:37.574Z,0.40
2023-03-05T13:18:08.855Z,0.40
2023-03-05T13:20:40.759Z,0.28
2023-03-05T13:23:18.465Z,0.30
2023-03-05T13:26:00.463Z,0.38
2023-03-05T13:28:31.443Z,0.25
2023-03-05T13:31:02.501Z,0.43
2023-03-05T13:33:34.802Z,0.40
2023-03-05T13:36:05.146Z,0.40
2023-03-05T13:38:37.488Z,0.32
2023-03-05T13:41:11.594Z,1.52
2023-03-05T13:43:46.343Z,0.45
2023-03-05T13:46:17.022Z,0.30
2023-03-05T13:48:47.306Z,1.63
2023-03-05T13:51:17.601Z,0.32
2023-03-05T13:53:48.185Z,0.30
2023-03-05T13:56:22.405Z,0.40
2023-03-05T13:58:55.044Z,0.40
2023-03-05T14:01:29.234Z,0.68
2023-03-05T14:04:00.851Z,0.80
2023-03-05T14:06:32.065Z,0.82
2023-03-05T14:11:34.875Z,1.35
2023-03-05T14:14:09.552Z,1.52
2023-03-05T14:16:39.972Z,1.63
2023-03-05T14:19:11.913Z,2.58
2023-03-05T14:21:49.624Z,3.25
2023-03-05T14:26:56.617Z,1.60
2023-03-05T14:29:27.357Z,1.60
2023-03-05T14:31:59.888Z,1.20
2023-03-05T14:34:31.961Z,1.52
2023-03-05T14:37:03.658Z,1.67
2023-03-05T14:39:36.047Z,2.05
2023-03-05T14:42:33.598Z,1.27
2023-03-05T14:45:15.332Z,1.23
2023-03-05T14:47:45.581Z,4.57
2023-03-05T14:50:19.055Z,1.27
2023-03-05T14:52:49.825Z,1.63
2023-03-05T14:55:20.387Z,3.58
2023-03-05T14:57:51.778Z,1.55
2023-03-05T15:00:25.917Z,0.80
2023-03-05T15:02:56.315Z,0.82
2023-03-05T15:05:26.617Z,0.68
2023-03-05T15:07:56.887Z,0.65
2023-03-05T15:10:28.139Z,1.00
2023-03-05T15:15:31.108Z,0.93
2023-03-05T15:18:01.975Z,0.68
2023-03-05T15:20:35.385Z,0.90
2023-03-05T15:23:05.704Z,0.60
2023-03-05T15:25:36.167Z,0.98
2023-03-05T15:28:06.502Z,1.17
2023-03-05T15:30:40.443Z,0.73
2023-03-05T15:33:12.493Z,1.27
2023-03-05T15:35:43.211Z,1.50
2023-03-05T15:38:13.597Z,3.47
2023-03-05T15:40:44.301Z,2.55
2023-03-05T15:43:14.590Z,1.60
2023-03-05T15:45:47.864Z,1.55
2023-03-05T15:48:18.403Z,1.13
2023-03-05T15:50:48.694Z,1.60
2023-03-05T15:53:20.365Z,3.13
2023-03-05T15:55:50.602Z,1.95
2023-03-05T15:58:21.316Z,1.33
2023-03-05T16:00:54.244Z,1.73
2023-03-05T16:03:25.313Z,3.15
2023-03-05T16:05:55.638Z,3.35
2023-03-05T16:08:25.898Z,3.53
2023-03-05T16:10:56.172Z,2.63
2023-03-05T16:13:28.696Z,1.52
2023-03-05T16:16:01.873Z,0.90
2023-03-05T16:18:33.704Z,1.17
2023-03-05T16:21:04.147Z,0.90
2023-03-05T16:23:34.403Z,1.00
2023-03-05T16:26:04.701Z,2.00
2023-03-05T16:28:35.088Z,1.75
2023-03-05T16:31:08.104Z,1.25
2023-03-05T16:33:38.410Z,1.70
2023-03-05T16:36:22.647Z,1.70
2023-03-05T16:38:53.903Z,1.48
2023-03-05T16:41:24.836Z,1.50
2023-03-05T16:43:56.514Z,2.60
2023-03-05T16:46:29.982Z,1.40
2023-03-05T16:49:00.517Z,1.55
2023-03-05T16:51:30.842Z,3.75
2023-03-05T16:54:02.117Z,1.20
2023-03-05T16:56:32.375Z,0.73
2023-03-05T16:59:02.673Z,1.08
2023-03-05T17:01:35.564Z,0.93
2023-03-05T17:04:08.579Z,1.08
2023-03-05T17:06:40.129Z,1.27
2023-03-05T17:09:10.435Z,1.08
2023-03-05T17:11:40.736Z,1.13
2023-03-05T17:14:11.504Z,0.90
2023-03-05T17:16:44.608Z,1.13
2023-03-05T17:19:15.823Z,0.90
2023-03-05T17:21:46.106Z,0.90
2023-03-05T17:24:16.553Z,2.22
2023-03-05T17:26:46.859Z,1.23
2023-03-05T17:29:19.097Z,2.55
2023-03-05T17:31:53.294Z,1.65
2023-03-05T17:34:35.684Z,3.47
2023-03-05T17:37:07.194Z,7.68
2023-03-05T17:39:37.688Z,4.40
2023-03-05T17:42:08.012Z,3.53
2023-03-05T17:44:38.325Z,2.38
2023-03-05T17:47:11.220Z,2.10
2023-03-05T17:49:44.739Z,2.35
2023-03-05T17:52:15.055Z,1.75
2023-03-05T17:54:45.450Z,2.20
2023-03-05T17:57:17.338Z,1.77
2023-03-05T17:59:47.812Z,1.23
2023-03-05T18:02:20.774Z,3.72
2023-03-05T18:04:52.280Z,2.13
2023-03-05T18:07:22.551Z,2.00
2023-03-05T18:09:52.822Z,1.50
2023-03-05T18:12:23.473Z,1.55
2023-03-05T18:14:55.021Z,1.42
2023-03-05T18:17:27.854Z,3.28
2023-03-05T18:19:58.296Z,1.63
2023-03-05T18:22:28.786Z,1.52
2023-03-05T18:25:01.787Z,2.67
2023-03-05T18:27:32.044Z,1.40
2023-03-05T18:30:02.313Z,2.35
2023-03-05T18:32:36.878Z,1.83
2023-03-05T18:35:07.638Z,3.10
2023-03-05T18:37:39.928Z,1.88
2023-03-05T18:40:11.243Z,2.00
2023-03-05T18:42:41.533Z,1.90
2023-03-05T18:45:13.404Z,4.22
2023-03-05T18:47:49.297Z,3.63
2023-03-05T18:50:24.171Z,1.55
2023-03-05T18:52:54.766Z,1.55
2023-03-05T18:55:26.493Z,1.33
2023-03-05T18:57:57.104Z,1.52
2023-03-05T19:00:28.702Z,2.28
2023-03-05T19:03:03.549Z,2.10
2023-03-05T19:05:34.717Z,1.92
2023-03-05T19:08:05.249Z,2.15
2023-03-05T19:10:38.725Z,2.55
2023-03-05T19:13:40.071Z,2.65
2023-03-05T19:16:14.241Z,2.45
2023-03-05T19:19:17.812Z,2.80
2023-03-05T19:21:53.607Z,2.72
2023-03-05T19:24:24.741Z,3.28
2023-03-05T19:26:56.885Z,2.20
2023-03-05T19:29:27.576Z,2.70
2023-03-05T19:31:58.117Z,3.25
2023-03-05T19:34:28.467Z,3.10
2023-03-05T19:37:01.363Z,3.50
2023-03-05T19:39:31.896Z,2.90
2023-03-05T19:42:02.505Z,2.70
2023-03-05T19:44:33.124Z,2.63
2023-03-05T19:47:03.462Z,2.58
2023-03-05T19:49:33.781Z,3.13
2023-03-05T19:52:07.049Z,3.13
2023-03-05T19:54:40.595Z,3.05
2023-03-05T19:57:10.987Z,3.22
2023-03-05T19:59:41.307Z,2.58
2023-03-05T20:02:14.024Z,3.13
2023-03-05T20:04:44.274Z,2.50
2023-03-05T20:07:17.130Z,2.75
2023-03-05T20:09:48.935Z,3.10
2023-03-05T20:12:19.422Z,3.05
2023-03-05T20:14:49.813Z,3.38
2023-03-05T20:17:20.413Z,2.83
2023-03-05T20:19:51.150Z,2.70
2023-03-05T20:22:24.100Z,3.85
2023-03-05T20:24:54.416Z,3.33
2023-03-05T20:27:24.685Z,4.35
2023-03-05T20:29:54.972Z,4.20
2023-03-05T20:32:25.349Z,3.95
2023-03-05T20:34:56.344Z,3.35
2023-03-05T20:37:53.974Z,3.80
2023-03-05T20:42:57.331Z,2.70
2023-03-05T20:45:27.976Z,4.93
2023-03-05T20:47:58.613Z,3.42
2023-03-05T20:50:30.733Z,4.88
2023-03-05T20:53:01.437Z,2.58
2023-03-05T20:55:32.732Z,2.00
2023-03-05T21:00:36.242Z,1.80
2023-03-05T21:03:07.399Z,2.03
2023-03-05T21:05:39.066Z,2.08
2023-03-05T21:08:09.500Z,3.90
2023-03-05T21:10:41.161Z,2.20
2023-03-05T21:13:11.492Z,2.25
2023-03-05T21:15:44.451Z,2.30
2023-03-05T21:18:14.748Z,2.22
2023-03-05T21:20:45.022Z,2.35
2023-03-05T21:23:15.298Z,2.35
2023-03-05T21:25:45.613Z,1.90
2023-03-05T21:28:18.099Z,2.15
2023-03-05T21:30:52.153Z,1.80
2023-03-05T21:33:23.688Z,1.95
2023-03-05T21:35:55.066Z,2.05
2023-03-05T21:40:56.623Z,1.92
2023-03-05T21:43:27.563Z,3.90
2023-03-05T21:46:00.574Z,1.83
2023-03-05T21:48:30.941Z,2.00
2023-03-05T21:51:01.491Z,3.58
2023-03-05T21:53:31.901Z,2.10
2023-03-05T21:56:26.576Z,1.98
2023-03-05T21:58:57.027Z,1.42
2023-03-05T22:01:29.990Z,1.88
2023-03-05T22:04:00.508Z,1.67
2023-03-05T22:06:31.252Z,2.17
2023-03-05T22:09:01.627Z,2.13
2023-03-05T22:11:31.881Z,2.20
2023-03-05T22:14:02.374Z,2.03
2023-03-05T22:16:35.437Z,2.28
2023-03-05T22:19:05.993Z,2.05
2023-03-05T22:21:36.254Z,2.30
2023-03-05T22:24:06.693Z,2.50
2023-03-05T22:26:38.136Z,3.03
2023-03-05T22:29:09.884Z,3.22
2023-03-05T22:31:43.413Z,2.53
2023-03-05T22:34:13.777Z,2.95
2023-03-05T22:36:44.140Z,3.22
2023-03-05T22:39:14.489Z,2.53
2023-03-05T22:41:45.250Z,3.45
2023-03-05T22:44:15.830Z,3.33
2023-03-05T22:46:50.652Z,3.25
2023-03-05T22:49:20.918Z,4.03
2023-03-05T22:51:51.248Z,3.63
2023-03-05T22:54:21.589Z,3.55
2023-03-05T22:56:51.919Z,3.97
2023-03-05T22:59:22.228Z,3.08
2023-03-05T23:01:55.067Z,5.18
2023-03-05T23:04:53.224Z,3.03
2023-03-05T23:07:24.540Z,3.88
2023-03-05T23:09:55.883Z,5.75
2023-03-05T23:12:26.879Z,3.92
2023-03-05T23:14:57.209Z,4.82
2023-03-05T23:17:30.335Z,4.50
2023-03-05T23:20:00.727Z,4.30
2023-03-05T23:22:31.140Z,4.70
2023-03-05T23:25:01.533Z,5.35
2023-03-05T23:27:31.843Z,5.68
2023-03-05T23:30:20.268Z,5.82
2023-03-05T23:32:54.989Z,6.57
2023-03-05T23:35:26.206Z,5.78
2023-03-05T23:37:56.862Z,5.80
2023-03-05T23:40:28.429Z,4.22
2023-03-05T23:42:58.721Z,5.70
2023-03-05T23:45:29.277Z,6.28
2023-03-05T23:48:02.301Z,5.30
2023-03-05T23:50:33.520Z,4.72
2023-03-05T23:53:04.451Z,5.82
2023-03-05T23:55:35.638Z,4.85
2023-03-05T23:58:06.085Z,5.00
